createdAt,value
2022-08-26T00:01:33.297Z,10.82
2022-08-26T00:04:01.317Z,11.80
2022-08-26T00:06:28.728Z,11.18
2022-08-26T00:08:55.195Z,11.02
2022-08-26T00:11:26.822Z,10.80
2022-08-26T00:13:54.689Z,11.02
2022-08-26T00:16:22.047Z,11.25
2022-08-26T00:18:48.602Z,10.73
2022-08-26T00:21:15.949Z,11.38
2022-08-26T00:23:42.561Z,10.82
2022-08-26T00:26:08.999Z,10.93
2022-08-26T00:28:37.974Z,11.43
2022-08-26T00:31:07.262Z,11.82
2022-08-26T00:33:33.802Z,11.32
2022-08-26T00:36:01.619Z,12.65
2022-08-26T00:38:30.249Z,11.52
2022-08-26T00:40:57.389Z,11.70
2022-08-26T00:43:25.127Z,11.35
2022-08-26T00:46:04.723Z,11.35
2022-08-26T00:48:33.851Z,11.48
2022-08-26T00:51:11.699Z,11.65
2022-08-26T00:53:44.734Z,12.32
2022-08-26T00:56:20.834Z,11.63
2022-08-26T00:58:48.091Z,12.48
2022-08-26T01:01:15.089Z,12.30
2022-08-26T01:03:43.241Z,11.50
2022-08-26T01:06:12.626Z,11.73
2022-08-26T01:08:39.842Z,12.53
2022-08-26T01:11:06.823Z,12.30
2022-08-26T01:13:36.348Z,12.05
2022-08-26T01:16:05.431Z,12.00
2022-08-26T01:18:33.301Z,12.03
2022-08-26T01:21:06.087Z,11.40
2022-08-26T01:23:41.112Z,10.60
2022-08-26T01:26:27.563Z,11.25
2022-08-26T01:28:58.060Z,11.35
2022-08-26T01:31:31.080Z,10.88
2022-08-26T01:34:19.635Z,10.75
2022-08-26T01:36:51.426Z,14.18
2022-08-26T01:39:18.862Z,12.15
2022-08-26T01:41:46.178Z,12.10
2022-08-26T01:44:17.191Z,11.88
2022-08-26T01:46:46.310Z,12.82
2022-08-26T01:49:14.186Z,11.20
2022-08-26T01:51:44.408Z,11.95
2022-08-26T01:54:13.755Z,11.77
2022-08-26T01:56:40.586Z,11.05
2022-08-26T01:59:10.790Z,11.65
2022-08-26T02:01:38.859Z,11.48
2022-08-26T02:04:10.896Z,12.13
2022-08-26T02:06:38.615Z,12.95
2022-08-26T02:09:07.879Z,12.30
2022-08-26T02:11:35.092Z,12.35
2022-08-26T02:14:19.178Z,12.70
2022-08-26T02:16:48.909Z,13.02
2022-08-26T02:19:24.571Z,11.95
2022-08-26T02:21:52.229Z,11.57
2022-08-26T02:24:22.799Z,12.48
2022-08-26T02:26:50.945Z,12.95
2022-08-26T02:29:25.077Z,14.55
2022-08-26T02:31:52.462Z,12.65
2022-08-26T02:34:26.537Z,12.30
2022-08-26T02:37:01.940Z,13.25
2022-08-26T02:39:29.773Z,12.60
2022-08-26T02:41:56.656Z,13.05
2022-08-26T02:44:23.173Z,12.82
2022-08-26T02:46:49.661Z,12.07
2022-08-26T02:49:17.321Z,12.60
2022-08-26T02:51:43.783Z,12.07
2022-08-26T02:54:10.289Z,12.48
2022-08-26T02:56:37.377Z,12.48
2022-08-26T02:59:04.111Z,11.13
2022-08-26T03:01:34.207Z,13.60
2022-08-26T03:04:02.449Z,13.32
2022-08-26T03:06:29.613Z,12.75
2022-08-26T03:08:56.587Z,12.98
2022-08-26T03:11:23.843Z,13.63
2022-08-26T03:13:51.792Z,13.13
2022-08-26T03:16:18.827Z,14.38
2022-08-26T03:18:51.989Z,13.52
2022-08-26T03:21:19.977Z,12.85
2022-08-26T03:23:46.516Z,13.23
2022-08-26T03:26:15.161Z,13.73
2022-08-26T03:29:01.542Z,13.40
2022-08-26T03:31:29.663Z,13.38
2022-08-26T03:33:59.599Z,13.05
2022-08-26T03:36:26.478Z,13.27
2022-08-26T03:38:53.459Z,13.23
2022-08-26T03:41:21.326Z,14.10
2022-08-26T03:43:50.621Z,14.50
2022-08-26T03:46:18.550Z,15.05
2022-08-26T03:48:45.746Z,13.02
2022-08-26T03:51:19.100Z,13.27
2022-08-26T03:53:46.433Z,14.23
2022-08-26T03:56:12.877Z,13.65
2022-08-26T03:58:39.611Z,13.20
2022-08-26T04:01:09.397Z,13.30
2022-08-26T04:03:54.492Z,14.20
2022-08-26T04:06:20.922Z,12.98
2022-08-26T04:08:48.023Z,13.80
2022-08-26T04:11:28.447Z,13.00
2022-08-26T04:13:59.471Z,13.93
2022-08-26T04:16:28.345Z,13.73
2022-08-26T04:18:56.475Z,12.57
2022-08-26T04:21:23.606Z,13.75
2022-08-26T04:23:50.416Z,13.57
2022-08-26T04:26:19.698Z,13.57
2022-08-26T04:28:50.791Z,11.77
2022-08-26T04:31:18.878Z,14.60
2022-08-26T04:33:47.548Z,12.85
2022-08-26T04:36:16.182Z,14.05
2022-08-26T04:38:43.103Z,14.23
2022-08-26T04:41:15.630Z,13.75
2022-08-26T04:43:44.733Z,14.68
2022-08-26T04:46:13.073Z,14.27
2022-08-26T04:48:40.894Z,15.50
2022-08-26T04:51:07.623Z,16.42
2022-08-26T04:53:34.786Z,15.77
2022-08-26T04:56:01.320Z,15.95
2022-08-26T04:58:30.367Z,15.77
2022-08-26T05:00:56.943Z,14.68
2022-08-26T05:03:24.606Z,15.50
2022-08-26T05:05:51.419Z,15.10
2022-08-26T05:08:19.598Z,16.88
2022-08-26T05:10:48.791Z,15.02
2022-08-26T05:13:18.078Z,15.50
2022-08-26T05:15:48.299Z,16.25
2022-08-26T05:18:20.046Z,18.35
2022-08-26T05:20:49.860Z,17.70
2022-08-26T05:23:17.606Z,16.73
2022-08-26T05:25:47.148Z,16.95
2022-08-26T05:28:16.827Z,16.52
2022-08-26T05:30:44.490Z,16.55
2022-08-26T05:33:12.025Z,17.95
2022-08-26T05:35:39.106Z,16.30
2022-08-26T05:38:12.855Z,15.95
2022-08-26T05:40:44.560Z,15.95
2022-08-26T05:43:11.964Z,15.88
2022-08-26T05:45:46.173Z,14.60
2022-08-26T05:48:14.973Z,15.05
2022-08-26T05:50:46.227Z,16.02
2022-08-26T05:53:14.471Z,16.65
2022-08-26T05:55:45.443Z,16.25
2022-08-26T05:58:13.111Z,15.32
2022-08-26T06:00:40.299Z,14.27
2022-08-26T06:03:08.630Z,15.38
2022-08-26T06:05:41.837Z,13.68
2022-08-26T06:08:11.715Z,17.48
2022-08-26T06:10:45.225Z,14.90
2022-08-26T06:13:13.015Z,15.77
2022-08-26T06:15:47.561Z,14.43
2022-08-26T06:18:17.030Z,16.63
2022-08-26T06:20:57.354Z,14.02
2022-08-26T06:23:45.277Z,13.15
2022-08-26T06:26:13.132Z,13.70
2022-08-26T06:28:39.588Z,14.85
2022-08-26T06:31:06.232Z,13.15
2022-08-26T06:33:33.361Z,13.90
2022-08-26T06:36:01.060Z,13.15
2022-08-26T06:38:27.882Z,13.85
2022-08-26T06:40:59.689Z,13.35
2022-08-26T06:43:28.090Z,13.35
2022-08-26T06:46:07.211Z,12.80
2022-08-26T06:48:34.373Z,12.68
2022-08-26T06:51:07.320Z,14.10
2022-08-26T06:53:33.762Z,12.70
2022-08-26T06:56:04.104Z,12.13
2022-08-26T06:58:31.298Z,12.83
2022-08-26T07:01:03.108Z,13.57
2022-08-26T07:03:39.591Z,13.02
2022-08-26T07:08:33.978Z,12.18
2022-08-26T07:11:05.370Z,11.90
2022-08-26T07:13:31.845Z,11.95
2022-08-26T07:16:02.942Z,11.48
2022-08-26T07:18:30.858Z,11.55
2022-08-26T07:20:57.315Z,11.20
2022-08-26T07:23:23.742Z,11.13
2022-08-26T07:25:50.810Z,11.85
2022-08-26T07:28:17.260Z,11.20
2022-08-26T07:30:43.770Z,11.52
2022-08-26T07:33:10.234Z,11.10
2022-08-26T07:35:37.836Z,11.50
2022-08-26T07:38:04.310Z,11.05
2022-08-26T07:40:32.024Z,10.57
2022-08-26T07:42:58.542Z,11.35
2022-08-26T07:45:27.716Z,10.60
2022-08-26T07:47:54.421Z,9.95
2022-08-26T07:50:22.369Z,9.68
2022-08-26T07:53:10.757Z,9.38
2022-08-26T07:55:37.479Z,9.27
2022-08-26T07:58:05.563Z,10.13
2022-08-26T08:00:33.267Z,9.65
2022-08-26T08:03:02.656Z,9.60
2022-08-26T08:05:33.596Z,9.65
2022-08-26T08:08:26.306Z,9.73
2022-08-26T08:10:49.063Z,10.23
2022-08-26T08:13:15.794Z,8.98
2022-08-26T08:15:42.297Z,9.32
2022-08-26T08:18:15.299Z,8.90
2022-08-26T08:20:47.684Z,9.27
2022-08-26T08:23:25.805Z,9.40
2022-08-26T08:26:01.568Z,8.60
2022-08-26T08:28:28.635Z,8.05
2022-08-26T08:30:56.003Z,8.15
2022-08-26T08:33:22.609Z,8.73
2022-08-26T08:35:49.206Z,9.52
2022-08-26T08:38:16.601Z,8.77
2022-08-26T08:40:45.672Z,8.77
2022-08-26T08:43:24.703Z,8.27
2022-08-26T08:45:57.619Z,9.43
2022-08-26T08:48:29.477Z,8.07
2022-08-26T08:51:08.488Z,9.60
2022-08-26T08:53:39.176Z,8.55
2022-08-26T08:56:39.900Z,8.38
2022-08-26T08:59:12.804Z,8.73
2022-08-26T09:01:52.451Z,7.30
2022-08-26T09:05:02.916Z,8.82
2022-08-26T09:07:37.521Z,9.45
2022-08-26T09:10:28.891Z,8.38
2022-08-26T09:12:55.514Z,8.23
2022-08-26T09:15:30.330Z,8.60
2022-08-26T09:18:10.921Z,8.20
2022-08-26T09:20:49.484Z,9.02
2022-08-26T09:23:17.165Z,7.75
2022-08-26T09:26:00.308Z,8.02
2022-08-26T09:28:30.308Z,7.88
2022-08-26T09:31:13.122Z,7.60
2022-08-26T09:33:41.105Z,7.25
2022-08-26T09:36:34.433Z,7.35
2022-08-26T09:39:29.684Z,8.10
2022-08-26T09:42:11.759Z,7.68
2022-08-26T09:44:59.496Z,8.45
2022-08-26T09:47:28.516Z,8.23
2022-08-26T09:50:21.548Z,9.18
2022-08-26T09:53:09.843Z,8.27
2022-08-26T09:55:41.991Z,7.90
2022-08-26T09:58:13.695Z,8.73
2022-08-26T10:00:43.573Z,8.15
2022-08-26T10:03:15.603Z,8.88
2022-08-26T10:05:54.129Z,9.13
2022-08-26T10:08:23.740Z,8.75
2022-08-26T10:10:53.353Z,8.77
2022-08-26T10:13:40.988Z,9.60
2022-08-26T10:16:25.480Z,8.18
2022-08-26T10:19:10.511Z,9.38
2022-08-26T10:21:44.933Z,9.10
2022-08-26T10:24:17.770Z,7.72
2022-08-26T10:27:03.777Z,8.20
2022-08-26T10:29:47.393Z,10.18
2022-08-26T10:32:21.737Z,9.02
2022-08-26T10:34:48.224Z,9.10
2022-08-26T10:37:19.241Z,8.27
2022-08-26T10:39:59.057Z,8.30
2022-08-26T10:42:35.438Z,8.32
2022-08-26T10:45:11.665Z,8.60
2022-08-26T10:48:03.420Z,9.02
2022-08-26T10:50:38.651Z,10.10
2022-08-26T10:53:25.221Z,8.98
2022-08-26T10:56:18.932Z,9.52
2022-08-26T10:58:57.720Z,9.48
2022-08-26T11:01:44.182Z,6.03
2022-08-26T11:04:35.334Z,5.43
2022-08-26T11:07:41.760Z,5.22
2022-08-26T11:10:09.854Z,4.85
2022-08-26T11:12:36.223Z,5.28
2022-08-26T11:15:13.316Z,5.30
2022-08-26T11:17:46.162Z,5.18
2022-08-26T11:20:27.739Z,5.50
2022-08-26T11:22:56.559Z,5.10
2022-08-26T11:25:30.033Z,5.32
2022-08-26T11:27:59.830Z,5.32
2022-08-26T11:30:42.656Z,7.00
2022-08-26T11:33:10.407Z,5.60
2022-08-26T11:35:37.492Z,5.53
2022-08-26T11:38:28.199Z,4.70
2022-08-26T11:40:59.703Z,5.13
2022-08-26T11:43:30.473Z,5.30
2022-08-26T11:46:05.730Z,5.05
2022-08-26T11:48:36.803Z,5.43
2022-08-26T11:51:24.435Z,4.95
2022-08-26T11:53:51.369Z,5.32
2022-08-26T11:56:28.766Z,4.82
2022-08-26T11:59:02.153Z,4.57
2022-08-26T12:04:07.970Z,5.53
2022-08-26T12:06:43.353Z,5.90
2022-08-26T12:09:20.638Z,5.32
2022-08-26T12:11:47.150Z,5.15
2022-08-26T12:14:20.786Z,5.70
2022-08-26T12:16:47.737Z,7.93
2022-08-26T12:19:32.998Z,6.50
2022-08-26T12:22:23.532Z,7.00
2022-08-26T12:24:58.393Z,7.50
2022-08-26T12:27:39.900Z,7.20
2022-08-26T12:30:18.003Z,8.32
2022-08-26T12:32:57.642Z,7.55
2022-08-26T12:35:25.609Z,7.13
2022-08-26T12:37:54.156Z,6.90
2022-08-26T12:40:46.125Z,8.15
2022-08-26T12:43:34.166Z,7.03
2022-08-26T12:46:00.679Z,7.47
2022-08-26T12:48:33.582Z,6.55
2022-08-26T12:51:00.666Z,6.13
2022-08-26T12:53:35.196Z,5.30
2022-08-26T12:56:20.606Z,5.88
2022-08-26T12:59:01.024Z,6.10
2022-08-26T13:01:27.792Z,6.05
2022-08-26T13:03:54.407Z,6.57
2022-08-26T13:06:20.771Z,6.20
2022-08-26T13:08:48.716Z,5.40
2022-08-26T13:11:20.486Z,6.18
2022-08-26T13:13:51.643Z,5.15
2022-08-26T13:16:19.644Z,5.40
2022-08-26T13:19:01.749Z,4.90
2022-08-26T13:21:37.580Z,5.72
2022-08-26T13:24:35.765Z,4.68
2022-08-26T13:27:03.573Z,4.82
2022-08-26T13:29:30.007Z,5.45
2022-08-26T13:31:57.906Z,5.45
2022-08-26T13:34:24.774Z,6.43
2022-08-26T13:36:54.080Z,6.38
2022-08-26T13:39:22.099Z,6.13
2022-08-26T13:41:48.627Z,5.78
2022-08-26T13:44:15.082Z,5.60
2022-08-26T13:46:42.050Z,5.88
2022-08-26T13:49:08.879Z,6.15
2022-08-26T13:51:36.043Z,6.10
2022-08-26T13:54:02.480Z,6.35
2022-08-26T13:56:29.607Z,7.65
2022-08-26T13:58:57.819Z,8.73
2022-08-26T14:01:24.765Z,9.07
2022-08-26T14:03:51.431Z,11.75
2022-08-26T14:06:19.042Z,10.73
2022-08-26T14:08:46.929Z,10.05
2022-08-26T14:11:13.565Z,9.00
2022-08-26T14:13:40.419Z,8.13
2022-08-26T14:16:27.227Z,10.15
2022-08-26T14:18:54.081Z,9.27
2022-08-26T14:21:20.881Z,9.55
2022-08-26T14:23:47.648Z,9.75
2022-08-26T14:26:19.081Z,8.77
2022-08-26T14:28:57.209Z,8.85
2022-08-26T14:31:24.291Z,8.98
2022-08-26T14:33:51.102Z,8.98
2022-08-26T14:36:31.953Z,8.68
2022-08-26T14:41:28.448Z,9.05
2022-08-26T14:44:08.016Z,9.13
2022-08-26T14:46:43.303Z,9.95
2022-08-26T14:49:10.667Z,9.73
2022-08-26T14:51:38.131Z,9.27
2022-08-26T14:54:13.449Z,10.38
2022-08-26T14:56:44.706Z,9.57
2022-08-26T14:59:11.692Z,8.75
2022-08-26T15:01:38.223Z,8.50
2022-08-26T15:04:04.767Z,9.43
2022-08-26T15:06:32.022Z,9.50
2022-08-26T15:09:08.367Z,8.68
2022-08-26T15:11:35.066Z,9.38
2022-08-26T15:14:02.255Z,9.93
2022-08-26T15:16:29.192Z,9.55
2022-08-26T15:18:56.455Z,9.18
2022-08-26T15:21:23.609Z,9.38
2022-08-26T15:23:51.919Z,9.25
2022-08-26T15:26:19.541Z,9.50
2022-08-26T15:28:46.488Z,11.02
2022-08-26T15:31:13.025Z,11.90
2022-08-26T15:33:40.312Z,10.27
2022-08-26T15:36:07.897Z,9.85
2022-08-26T15:38:38.895Z,10.23
2022-08-26T15:41:08.511Z,9.77
2022-08-26T15:43:36.807Z,10.48
2022-08-26T15:46:03.539Z,10.45
2022-08-26T15:48:30.032Z,10.13
2022-08-26T15:51:00.479Z,10.55
2022-08-26T15:53:29.403Z,10.93
2022-08-26T15:55:56.935Z,10.32
2022-08-26T15:58:25.121Z,9.65
2022-08-26T16:00:54.876Z,9.48
2022-08-26T16:03:21.478Z,10.60
2022-08-26T16:05:48.395Z,9.85
2022-08-26T16:08:15.392Z,9.75
2022-08-26T16:10:49.780Z,8.75
2022-08-26T16:13:19.199Z,9.60
2022-08-26T16:15:47.456Z,9.13
2022-08-26T16:18:15.386Z,9.05
2022-08-26T16:21:05.004Z,10.45
2022-08-26T16:23:37.124Z,9.63
2022-08-26T16:26:11.823Z,9.40
2022-08-26T16:28:38.933Z,10.93
2022-08-26T16:31:06.240Z,10.85
2022-08-26T16:33:32.835Z,9.55
2022-08-26T16:35:59.262Z,10.80
2022-08-26T16:38:25.702Z,11.75
2022-08-26T16:40:52.124Z,11.85
2022-08-26T16:43:18.584Z,12.23
2022-08-26T16:45:45.006Z,12.07
2022-08-26T16:48:11.466Z,13.13
2022-08-26T16:50:40.568Z,13.77
2022-08-26T16:53:07.824Z,14.23
2022-08-26T16:55:34.939Z,12.50
2022-08-26T16:58:01.443Z,12.35
2022-08-26T17:00:31.961Z,13.20
2022-08-26T17:03:00.197Z,12.68
2022-08-26T17:05:28.123Z,13.20
2022-08-26T17:07:56.870Z,12.82
2022-08-26T17:10:24.779Z,13.23
2022-08-26T17:12:51.813Z,14.05
2022-08-26T17:15:18.771Z,13.40
2022-08-26T17:17:45.343Z,14.18
2022-08-26T17:20:16.434Z,13.63
2022-08-26T17:22:47.902Z,13.35
2022-08-26T17:25:20.472Z,13.77
2022-08-26T17:27:46.992Z,13.30
2022-08-26T17:30:14.064Z,13.40
2022-08-26T17:32:42.261Z,13.70
2022-08-26T17:35:10.694Z,14.02
2022-08-26T17:40:09.347Z,13.77
2022-08-26T17:42:37.669Z,13.95
2022-08-26T17:45:04.609Z,12.70
2022-08-26T17:47:33.304Z,11.77
2022-08-26T17:50:01.346Z,13.60
2022-08-26T17:52:28.776Z,13.00
2022-08-26T17:55:01.932Z,11.80
2022-08-26T17:57:29.218Z,13.10
2022-08-26T17:59:56.500Z,12.85
2022-08-26T18:02:23.868Z,13.02
2022-08-26T18:04:59.439Z,13.52
2022-08-26T18:07:27.182Z,12.45
2022-08-26T18:09:53.642Z,13.05
2022-08-26T18:12:20.468Z,13.35
2022-08-26T18:14:51.902Z,14.18
2022-08-26T18:17:19.343Z,14.55
2022-08-26T18:19:46.883Z,13.88
2022-08-26T18:22:15.560Z,13.07
2022-08-26T18:24:42.263Z,12.25
2022-08-26T18:27:24.695Z,12.25
2022-08-26T18:29:51.167Z,11.10
2022-08-26T18:32:17.754Z,10.90
2022-08-26T18:34:44.196Z,10.43
2022-08-26T18:39:42.254Z,12.75
2022-08-26T18:42:08.905Z,13.18
2022-08-26T18:44:35.356Z,13.50
2022-08-26T18:47:01.802Z,12.20
2022-08-26T18:49:28.784Z,11.70
2022-08-26T18:51:55.277Z,11.65
2022-08-26T18:54:22.150Z,11.95
2022-08-26T18:56:48.669Z,13.88
2022-08-26T18:59:15.158Z,12.32
2022-08-26T19:01:42.430Z,12.27
2022-08-26T19:04:14.719Z,11.60
2022-08-26T19:06:42.574Z,12.50
2022-08-26T19:09:11.763Z,13.02
2022-08-26T19:11:42.239Z,12.60
2022-08-26T19:14:12.982Z,12.88
2022-08-26T19:16:41.273Z,13.87
2022-08-26T19:19:07.792Z,13.70
2022-08-26T19:21:35.728Z,13.18
2022-08-26T19:24:05.881Z,13.90
2022-08-26T19:26:32.819Z,14.52
2022-08-26T19:28:59.584Z,14.02
2022-08-26T19:31:26.309Z,14.32
2022-08-26T19:33:52.903Z,15.32
2022-08-26T19:36:22.446Z,16.02
2022-08-26T19:38:49.922Z,15.93
2022-08-26T19:41:19.657Z,15.18
2022-08-26T19:43:46.396Z,17.40
2022-08-26T19:46:17.195Z,16.27
2022-08-26T19:48:44.890Z,16.02
2022-08-26T19:51:19.210Z,15.23
2022-08-26T19:53:47.732Z,15.48
2022-08-26T19:56:14.994Z,14.98
2022-08-26T19:58:41.695Z,14.90
2022-08-26T20:01:09.021Z,16.58
2022-08-26T20:03:36.045Z,16.35
2022-08-26T20:06:05.139Z,16.60
2022-08-26T20:08:34.536Z,18.60
2022-08-26T20:11:04.816Z,17.30
2022-08-26T20:13:32.154Z,18.73
2022-08-26T20:15:58.870Z,17.38
2022-08-26T20:18:43.939Z,16.98
2022-08-26T20:21:29.292Z,16.90
2022-08-26T20:24:00.385Z,17.15
2022-08-26T20:26:28.646Z,17.35
2022-08-26T20:28:56.150Z,17.90
2022-08-26T20:31:24.054Z,19.67
2022-08-26T20:33:51.664Z,19.98
2022-08-26T20:36:20.418Z,18.88
2022-08-26T20:38:48.625Z,18.73
2022-08-26T20:41:15.227Z,18.17
2022-08-26T20:43:46.085Z,18.63
2022-08-26T20:46:18.016Z,17.17
2022-08-26T20:48:47.768Z,16.35
2022-08-26T20:51:14.787Z,17.80
2022-08-26T20:53:41.414Z,18.15
2022-08-26T20:56:09.330Z,20.52
2022-08-26T20:58:37.260Z,19.45
2022-08-26T21:01:07.819Z,17.45
2022-08-26T21:03:36.145Z,17.13
2022-08-26T21:06:03.549Z,17.88
2022-08-26T21:08:30.044Z,17.55
2022-08-26T21:10:59.624Z,17.02
2022-08-26T21:13:26.094Z,16.98
2022-08-26T21:15:55.867Z,15.57
2022-08-26T21:18:22.342Z,15.70
2022-08-26T21:20:48.779Z,16.65
2022-08-26T21:23:15.220Z,16.77
2022-08-26T21:25:41.780Z,18.23
2022-08-26T21:28:08.302Z,17.88
2022-08-26T21:30:37.864Z,18.17
2022-08-26T21:33:04.309Z,18.77
2022-08-26T21:35:30.723Z,18.58
2022-08-26T21:37:57.147Z,19.85
2022-08-26T21:40:23.588Z,19.08
2022-08-26T21:42:50.050Z,17.98
2022-08-26T21:45:16.938Z,19.17
2022-08-26T21:47:43.666Z,19.67
2022-08-26T21:50:10.364Z,18.17
2022-08-26T21:52:37.822Z,19.17
2022-08-26T21:55:08.826Z,20.27
2022-08-26T21:57:35.677Z,18.27
2022-08-26T22:00:04.570Z,20.02
2022-08-26T22:02:32.615Z,20.97
2022-08-26T22:04:59.106Z,19.77
2022-08-26T22:07:25.535Z,19.05
2022-08-26T22:09:52.012Z,20.25
2022-08-26T22:12:18.993Z,19.70
2022-08-26T22:14:45.652Z,19.30
2022-08-26T22:17:12.167Z,19.35
2022-08-26T22:19:45.621Z,19.85
2022-08-26T22:22:13.906Z,16.95
2022-08-26T22:24:40.351Z,17.65
2022-08-26T22:27:06.848Z,17.48
2022-08-26T22:29:33.364Z,18.73
2022-08-26T22:32:00.944Z,16.58
2022-08-26T22:34:28.033Z,18.13
2022-08-26T22:36:54.560Z,19.88
2022-08-26T22:39:24.237Z,21.48
2022-08-26T22:41:52.108Z,19.75
2022-08-26T22:44:20.461Z,19.90
2022-08-26T22:46:48.390Z,19.95
2022-08-26T22:49:16.436Z,20.17
2022-08-26T22:51:44.705Z,21.80
2022-08-26T22:54:11.458Z,21.20
2022-08-26T22:56:38.646Z,23.70
2022-08-26T22:59:06.808Z,23.65
2022-08-26T23:01:38.797Z,23.90
2022-08-26T23:04:06.853Z,24.33
2022-08-26T23:06:38.087Z,24.40
2022-08-26T23:09:06.599Z,24.77
2022-08-26T23:11:33.919Z,26.88
2022-08-26T23:14:06.198Z,25.83
2022-08-26T23:16:39.336Z,25.98
2022-08-26T23:19:06.582Z,24.25
2022-08-26T23:21:33.194Z,25.80
2022-08-26T23:23:59.742Z,24.83
2022-08-26T23:26:26.214Z,25.52
2022-08-26T23:28:53.263Z,23.50
2022-08-26T23:31:19.714Z,25.20
2022-08-26T23:34:04.803Z,25.35
2022-08-26T23:36:31.282Z,24.77
2022-08-26T23:39:02.258Z,24.83
2022-08-26T23:41:28.694Z,22.60
2022-08-26T23:43:55.176Z,24.30
2022-08-26T23:46:21.603Z,24.02
2022-08-26T23:48:48.448Z,25.63
2022-08-26T23:51:33.222Z,27.45
2022-08-26T23:53:59.709Z,24.77
2022-08-26T23:56:26.744Z,25.50
2022-08-26T23:58:53.782Z,24.70
